sensor_id;sensor_type;location;lat;lon;timestamp;pressure;altitude;pressure_sealevel;temperature;humidity
44974;BME280;60981;50.720;11.342;2023-02-13T00:00:19;101696.47;;;8.30;100.00
44974;BME280;60981;50.720;11.342;2023-02-13T00:01:23;101702.53;;;8.32;100.00
44974;BME280;60981;50.720;11.342;2023-02-13T00:02:24;101702.09;;;8.23;100.00
44974;BME280;60981;50.720;11.342;2023-02-13T00:03:26;101702.78;;;8.19;100.00
44974;BME280;60981;50.720;11.342;2023-02-13T00:04:28;101700.88;;;8.15;100.00
44974;BME280;60981;50.720;11.342;2023-02-13T00:05:29;101700.22;;;8.19;100.00
44974;BME280;60981;50.720;11.342;2023-02-13T00:06:31;101694.06;;;8.15;100.00
44974;BME280;60981;50.720;11.342;2023-02-13T00:07:32;101694.78;;;8.12;100.00
44974;BME280;60981;50.720;11.342;2023-02-13T00:08:34;101695.59;;;8.11;100.00
44974;BME280;60981;50.720;11.342;2023-02-13T00:09:37;101695.00;;;8.17;100.00
44974;BME280;60981;50.720;11.342;2023-02-13T00:10:39;101692.66;;;8.22;100.00
44974;BME280;60981;50.720;11.342;2023-02-13T00:11:40;101687.06;;;8.12;100.00
44974;BME280;60981;50.720;11.342;2023-02-13T00:12:42;101686.06;;;8.09;100.00
44974;BME280;60981;50.720;11.342;2023-02-13T00:13:43;101687.81;;;8.10;100.00
44974;BME280;60981;50.720;11.342;2023-02-13T00:14:47;101678.16;;;8.04;100.00
44974;BME280;60981;50.720;11.342;2023-02-13T00:15:57;101681.59;;;8.05;100.00
44974;BME280;60981;50.720;11.342;2023-02-13T00:16:59;101681.66;;;8.06;100.00
44974;BME280;60981;50.720;11.342;2023-02-13T00:18:01;101683.22;;;8.03;100.00
44974;BME280;60981;50.720;11.342;2023-02-13T00:19:03;101682.13;;;7.98;100.00
44974;BME280;60981;50.720;11.342;2023-02-13T00:20:05;101685.34;;;7.94;100.00
44974;BME280;60981;50.720;11.342;2023-02-13T00:21:20;101680.88;;;7.90;100.00
44974;BME280;60981;50.720;11.342;2023-02-13T00:22:22;101682.13;;;7.80;100.00
44974;BME280;60981;50.720;11.342;2023-02-13T00:23:24;101679.34;;;7.75;100.00
44974;BME280;60981;50.720;11.342;2023-02-13T00:24:26;101677.31;;;7.68;100.00
44974;BME280;60981;50.720;11.342;2023-02-13T00:25:28;101675.56;;;7.67;100.00
44974;BME280;60981;50.720;11.342;2023-02-13T00:26:31;101682.19;;;7.64;100.00
44974;BME280;60981;50.720;11.342;2023-02-13T00:27:33;101680.66;;;7.49;100.00
44974;BME280;60981;50.720;11.342;2023-02-13T00:28:37;101680.88;;;7.54;100.00
44974;BME280;60981;50.720;11.342;2023-02-13T00:29:41;101678.81;;;7.47;100.00
44974;BME280;60981;50.720;11.342;2023-02-13T00:30:42;101678.00;;;7.48;100.00
44974;BME280;60981;50.720;11.342;2023-02-13T00:31:44;101678.00;;;7.48;100.00
44974;BME280;60981;50.720;11.342;2023-02-13T00:32:46;101680.56;;;7.48;100.00
44974;BME280;60981;50.720;11.342;2023-02-13T00:33:47;101685.34;;;7.58;100.00
44974;BME280;60981;50.720;11.342;2023-02-13T00:34:49;101686.22;;;7.59;100.00
44974;BME280;60981;50.720;11.342;2023-02-13T00:35:51;101682.84;;;7.60;100.00
44974;BME280;60981;50.720;11.342;2023-02-13T00:36:52;101685.50;;;7.61;100.00
44974;BME280;60981;50.720;11.342;2023-02-13T00:37:54;101688.38;;;7.67;100.00
44974;BME280;60981;50.720;11.342;2023-02-13T00:38:56;101683.31;;;7.69;100.00
44974;BME280;60981;50.720;11.342;2023-02-13T00:39:57;101674.22;;;7.75;100.00
44974;BME280;60981;50.720;11.342;2023-02-13T00:40:59;101678.47;;;7.75;100.00
44974;BME280;60981;50.720;11.342;2023-02-13T00:42:00;101678.41;;;7.73;100.00
44974;BME280;60981;50.720;11.342;2023-02-13T00:43:02;101676.50;;;7.69;100.00
44974;BME280;60981;50.720;11.342;2023-02-13T00:44:04;101682.84;;;7.77;100.00
44974;BME280;60981;50.720;11.342;2023-02-13T00:45:08;101677.00;;;7.80;100.00
44974;BME280;60981;50.720;11.342;2023-02-13T00:46:10;101683.53;;;7.73;100.00
44974;BME280;60981;50.720;11.342;2023-02-13T00:47:12;101681.75;;;7.72;100.00
44974;BME280;60981;50.720;11.342;2023-02-13T00:48:15;101688.66;;;7.73;100.00
44974;BME280;60981;50.720;11.342;2023-02-13T00:49:17;101683.59;;;7.75;100.00
44974;BME280;60981;50.720;11.342;2023-02-13T00:50:19;101685.94;;;7.70;100.00
44974;BME280;60981;50.720;11.342;2023-02-13T00:51:21;101688.78;;;7.76;100.00
44974;BME280;60981;50.720;11.342;2023-02-13T00:52:23;101681.09;;;7.76;100.00
44974;BME280;60981;50.720;11.342;2023-02-13T00:53:25;101682.44;;;7.68;100.00
44974;BME280;60981;50.720;11.342;2023-02-13T00:54:27;101685.00;;;7.68;100.00
44974;BME280;60981;50.720;11.342;2023-02-13T00:55:28;101687.31;;;7.64;100.00
44974;BME280;60981;50.720;11.342;2023-02-13T00:56:30;101684.69;;;7.62;100.00
44974;BME280;60981;50.720;11.342;2023-02-13T00:57:32;101685.41;;;7.60;100.00
44974;BME280;60981;50.720;11.342;2023-02-13T00:58:34;101692.22;;;7.59;100.00
44974;BME280;60981;50.720;11.342;2023-02-13T00:59:35;101682.84;;;7.60;100.00
44974;BME280;60981;50.720;11.342;2023-02-13T01:00:38;101689.97;;;7.65;100.00
44974;BME280;60981;50.720;11.342;2023-02-13T01:01:40;101687.56;;;7.68;100.00
44974;BME280;60981;50.720;11.342;2023-02-13T01:02:41;101690.06;;;7.67;100.00
44974;BME280;60981;50.720;11.342;2023-02-13T01:03:43;101685.88;;;7.51;100.00
44974;BME280;60981;50.720;11.342;2023-02-13T01:04:45;101685.63;;;7.46;100.00
44974;BME280;60981;50.720;11.342;2023-02-13T01:05:47;101690.19;;;7.52;100.00
44974;BME280;60981;50.720;11.342;2023-02-13T01:06:50;101688.56;;;7.54;100.00
44974;BME280;60981;50.720;11.342;2023-02-13T01:07:52;101697.50;;;7.62;100.00
44974;BME280;60981;50.720;11.342;2023-02-13T01:08:54;101687.25;;;7.62;100.00
44974;BME280;60981;50.720;11.342;2023-02-13T01:09:56;101690.69;;;7.63;100.00
44974;BME280;60981;50.720;11.342;2023-02-13T01:10:57;101692.44;;;7.64;100.00
44974;BME280;60981;50.720;11.342;2023-02-13T01:12:00;101687.03;;;7.58;100.00
44974;BME280;60981;50.720;11.342;2023-02-13T01:13:02;101686.38;;;7.62;100.00
44974;BME280;60981;50.720;11.342;2023-02-13T01:14:03;101686.81;;;7.53;100.00
44974;BME280;60981;50.720;11.342;2023-02-13T01:15:06;101687.69;;;7.53;100.00
44974;BME280;60981;50.720;11.342;2023-02-13T01:16:07;101696.03;;;7.49;100.00
44974;BME280;60981;50.720;11.342;2023-02-13T01:17:09;101690.31;;;7.55;100.00
44974;BME280;60981;50.720;11.342;2023-02-13T01:18:14;101685.34;;;7.58;100.00
44974;BME280;60981;50.720;11.342;2023-02-13T01:19:16;101687.91;;;7.58;100.00
44974;BME280;60981;50.720;11.342;2023-02-13T01:20:18;101685.06;;;7.52;100.00
44974;BME280;60981;50.720;11.342;2023-02-13T01:21:21;101689.38;;;7.53;100.00
44974;BME280;60981;50.720;11.342;2023-02-13T01:22:24;101687.31;;;7.46;100.00
44974;BME280;60981;50.720;11.342;2023-02-13T01:23:29;101688.25;;;7.48;100.00
44974;BME280;60981;50.720;11.342;2023-02-13T01:24:31;101685.69;;;7.48;100.00
44974;BME280;60981;50.720;11.342;2023-02-13T01:25:33;101683.78;;;7.44;100.00
44974;BME280;60981;50.720;11.342;2023-02-13T01:26:37;101686.06;;;7.38;100.00
44974;BME280;60981;50.720;11.342;2023-02-13T01:27:39;101688.19;;;7.46;100.00
44974;BME280;60981;50.720;11.342;2023-02-13T01:28:41;101691.41;;;7.42;100.00
44974;BME280;60981;50.720;11.342;2023-02-13T01:29:42;101681.66;;;7.35;100.00
44974;BME280;60981;50.720;11.342;2023-02-13T01:30:44;101686.66;;;7.32;100.00
44974;BME280;60981;50.720;11.342;2023-02-13T01:31:47;101688.06;;;7.27;100.00
44974;BME280;60981;50.720;11.342;2023-02-13T01:32:49;101691.28;;;7.23;100.00
44974;BME280;60981;50.720;11.342;2023-02-13T01:33:54;101686.97;;;7.22;100.00
44974;BME280;60981;50.720;11.342;2023-02-13T01:34:56;101689.69;;;7.25;100.00
44974;BME280;60981;50.720;11.342;2023-02-13T01:35:58;101683.97;;;7.31;100.00
44974;BME280;60981;50.720;11.342;2023-02-13T01:37:00;101685.44;;;7.26;100.00
44974;BME280;60981;50.720;11.342;2023-02-13T01:38:02;101677.09;;;7.30;100.00
44974;BME280;60981;50.720;11.342;2023-02-13T01:39:04;101685.59;;;7.29;100.00
44974;BME280;60981;50.720;11.342;2023-02-13T01:40:12;101681.19;;;7.26;100.00
44974;BME280;60981;50.720;11.342;2023-02-13T01:41:14;101685.63;;;7.12;100.00
44974;BME280;60981;50.720;11.342;2023-02-13T01:42:28;101684.91;;;7.15;100.00
44974;BME280;60981;50.720;11.342;2023-02-13T01:43:52;101685.69;;;7.14;100.00
44974;BME280;60981;50.720;11.342;2023-02-13T01:44:57;101688.25;;;7.14;100.00
44974;BME280;60981;50.720;11.342;2023-02-13T01:46:00;101684.19;;;7.17;100.00
44974;BME280;60981;50.720;11.342;2023-02-13T01:47:02;101681.78;;;7.20;100.00
44974;BME280;60981;50.720;11.342;2023-02-13T01:48:16;101684.41;;;7.22;100.00
44974;BME280;60981;50.720;11.342;2023-02-13T01:49:21;101678.34;;;7.20;100.00
44974;BME280;60981;50.720;11.342;2023-02-13T01:50:37;101690.44;;;7.06;100.00
44974;BME280;60981;50.720;11.342;2023-02-13T01:51:41;101682.34;;;6.99;100.00
44974;BME280;60981;50.720;11.342;2023-02-13T01:52:50;101685.78;;;6.99;100.00
44974;BME280;60981;50.720;11.342;2023-02-13T01:53:59;101690.78;;;6.96;100.00
44974;BME280;60981;50.720;11.342;2023-02-13T01:55:04;101689.88;;;6.96;100.00
44974;BME280;60981;50.720;11.342;2023-02-13T01:56:18;101681.09;;;6.90;100.00
44974;BME280;60981;50.720;11.342;2023-02-13T01:57:22;101685.34;;;6.90;100.00
44974;BME280;60981;50.720;11.342;2023-02-13T01:58:27;101682.63;;;6.87;100.00
44974;BME280;60981;50.720;11.342;2023-02-13T01:59:33;101681.50;;;6.82;100.00
44974;BME280;60981;50.720;11.342;2023-02-13T02:00:38;101685.59;;;6.78;100.00
44974;BME280;60981;50.720;11.342;2023-02-13T02:01:40;101677.59;;;6.72;100.00
44974;BME280;60981;50.720;11.342;2023-02-13T02:02:54;101677.38;;;6.68;100.00
44974;BME280;60981;50.720;11.342;2023-02-13T02:03:59;101683.84;;;6.61;100.00
44974;BME280;60981;50.720;11.342;2023-02-13T02:05:04;101689.38;;;6.52;100.00
44974;BME280;60981;50.720;11.342;2023-02-13T02:06:07;101684.06;;;6.49;100.00
44974;BME280;60981;50.720;11.342;2023-02-13T02:07:18;101688.28;;;6.49;100.00
44974;BME280;60981;50.720;11.342;2023-02-13T02:08:20;101685.91;;;6.52;100.00
44974;BME280;60981;50.720;11.342;2023-02-13T02:09:23;101685.34;;;6.41;100.00
44974;BME280;60981;50.720;11.342;2023-02-13T02:10:26;101692.88;;;6.38;100.00
44974;BME280;60981;50.720;11.342;2023-02-13T02:13:14;101685.09;;;6.37;100.00
44974;BME280;60981;50.720;11.342;2023-02-13T02:14:18;101683.72;;;6.27;100.00
44974;BME280;60981;50.720;11.342;2023-02-13T02:15:21;101681.00;;;6.24;100.00
44974;BME280;60981;50.720;11.342;2023-02-13T02:16:22;101685.88;;;6.19;100.00
44974;BME280;60981;50.720;11.342;2023-02-13T02:17:25;101685.16;;;6.22;100.00
44974;BME280;60981;50.720;11.342;2023-02-13T02:18:27;101683.69;;;6.11;100.00
44974;BME280;60981;50.720;11.342;2023-02-13T02:19:35;101682.88;;;6.12;100.00
44974;BME280;60981;50.720;11.342;2023-02-13T02:22:15;101685.22;;;6.07;100.00
44974;BME280;60981;50.720;11.342;2023-02-13T02:27:14;101676.13;;;5.97;100.00
44974;BME280;60981;50.720;11.342;2023-02-13T02:29:36;101676.22;;;5.99;100.00
44974;BME280;60981;50.720;11.342;2023-02-13T02:32:19;101672.53;;;5.94;100.00
44974;BME280;60981;50.720;11.342;2023-02-13T02:33:35;101682.31;;;5.86;100.00
44974;BME280;60981;50.720;11.342;2023-02-13T02:38:02;101680.44;;;5.84;100.00
44974;BME280;60981;50.720;11.342;2023-02-13T02:40:25;101674.47;;;5.83;100.00
44974;BME280;60981;50.720;11.342;2023-02-13T02:41:34;101681.16;;;5.81;100.00
44974;BME280;60981;50.720;11.342;2023-02-13T02:44:11;101681.25;;;5.83;100.00
44974;BME280;60981;50.720;11.342;2023-02-13T02:46:21;101682.13;;;5.83;100.00
44974;BME280;60981;50.720;11.342;2023-02-13T02:51:45;101687.06;;;5.80;100.00
44974;BME280;60981;50.720;11.342;2023-02-13T02:56:43;101680.69;;;5.57;100.00
44974;BME280;60981;50.720;11.342;2023-02-13T02:57:48;101681.56;;;5.58;100.00
44974;BME280;60981;50.720;11.342;2023-02-13T02:59:10;101678.06;;;5.56;100.00
44974;BME280;60981;50.720;11.342;2023-02-13T03:00:34;101684.38;;;5.48;100.00
44974;BME280;60981;50.720;11.342;2023-02-13T03:01:57;101684.38;;;5.48;100.00
44974;BME280;60981;50.720;11.342;2023-02-13T03:03:21;101680.31;;;5.36;100.00
44974;BME280;60981;50.720;11.342;2023-02-13T03:04:43;101681.41;;;5.25;100.00
44974;BME280;60981;50.720;11.342;2023-02-13T03:07:29;101675.91;;;5.19;100.00
44974;BME280;60981;50.720;11.342;2023-02-13T03:08:31;101676.44;;;5.13;100.00
44974;BME280;60981;50.720;11.342;2023-02-13T03:09:56;101680.13;;;5.04;100.00
44974;BME280;60981;50.720;11.342;2023-02-13T03:11:18;101678.03;;;4.97;100.00
44974;BME280;60981;50.720;11.342;2023-02-13T03:12:44;101670.59;;;4.87;100.00
44974;BME280;60981;50.720;11.342;2023-02-13T03:14:08;101672.06;;;4.68;100.00
44974;BME280;60981;50.720;11.342;2023-02-13T03:15:12;101673.78;;;4.55;100.00
44974;BME280;60981;50.720;11.342;2023-02-13T03:16:16;101669.47;;;4.53;100.00
44974;BME280;60981;50.720;11.342;2023-02-13T03:17:38;101678.69;;;4.51;100.00
44974;BME280;60981;50.720;11.342;2023-02-13T03:18:58;101672.72;;;4.51;100.00
44974;BME280;60981;50.720;11.342;2023-02-13T03:24:42;101679.91;;;4.43;100.00
44974;BME280;60981;50.720;11.342;2023-02-13T03:25:51;101677.72;;;4.49;100.00
44974;BME280;60981;50.720;11.342;2023-02-13T03:31:37;101679.88;;;4.71;100.00
44974;BME280;60981;50.720;11.342;2023-02-13T03:33:06;101674.22;;;4.75;100.00
44974;BME280;60981;50.720;11.342;2023-02-13T03:34:14;101677.72;;;4.77;100.00
44974;BME280;60981;50.720;11.342;2023-02-13T03:36:58;101677.81;;;4.79;100.00
44974;BME280;60981;50.720;11.342;2023-02-13T03:38:31;101677.28;;;4.85;100.00
44974;BME280;60981;50.720;11.342;2023-02-13T03:40:46;101679.13;;;4.87;100.00
44974;BME280;60981;50.720;11.342;2023-02-13T03:42:51;101678.56;;;4.91;100.00
44974;BME280;60981;50.720;11.342;2023-02-13T03:43:40;101677.59;;;4.89;100.00
44974;BME280;60981;50.720;11.342;2023-02-13T03:44:43;101677.59;;;4.89;100.00
44974;BME280;60981;50.720;11.342;2023-02-13T03:46:08;101680.94;;;4.88;100.00
44974;BME280;60981;50.720;11.342;2023-02-13T03:47:11;101687.59;;;4.86;100.00
44974;BME280;60981;50.720;11.342;2023-02-13T03:48:15;101688.38;;;4.85;100.00
44974;BME280;60981;50.720;11.342;2023-02-13T03:49:42;101685.72;;;4.83;100.00
44974;BME280;60981;50.720;11.342;2023-02-13T03:51:03;101689.06;;;4.82;100.00
44974;BME280;60981;50.720;11.342;2023-02-13T03:52:10;101692.59;;;4.85;100.00
44974;BME280;60981;50.720;11.342;2023-02-13T03:53:14;101693.38;;;4.83;100.00
44974;BME280;60981;50.720;11.342;2023-02-13T03:54:24;101692.25;;;4.78;100.00
44974;BME280;60981;50.720;11.342;2023-02-13T03:55:45;101693.59;;;4.59;100.00
44974;BME280;60981;50.720;11.342;2023-02-13T03:57:11;101686.78;;;4.44;100.00
44974;BME280;60981;50.720;11.342;2023-02-13T03:58:35;101692.78;;;4.32;100.00
44974;BME280;60981;50.720;11.342;2023-02-13T03:59:56;101687.72;;;4.18;100.00
44974;BME280;60981;50.720;11.342;2023-02-13T04:00:59;101697.91;;;4.05;100.00
44974;BME280;60981;50.720;11.342;2023-02-13T04:02:13;57367.47;;;-144.53;100.00
44974;BME280;60981;50.720;11.342;2023-02-13T04:03:34;57367.47;;;-144.53;100.00
44974;BME280;60981;50.720;11.342;2023-02-13T04:04:47;57367.47;;;-144.53;100.00
44974;BME280;60981;50.720;11.342;2023-02-13T04:06:08;57367.47;;;-144.53;100.00
44974;BME280;60981;50.720;11.342;2023-02-13T04:07:15;57367.47;;;-144.53;100.00
44974;BME280;60981;50.720;11.342;2023-02-13T04:08:31;57367.47;;;-144.53;100.00
44974;BME280;60981;50.720;11.342;2023-02-13T04:09:35;57367.47;;;-144.53;100.00
44974;BME280;60981;50.720;11.342;2023-02-13T04:10:45;57367.47;;;-144.53;100.00
44974;BME280;60981;50.720;11.342;2023-02-13T04:12:01;57367.47;;;-144.53;100.00
44974;BME280;60981;50.720;11.342;2023-02-13T04:14:39;57367.47;;;-144.53;100.00
44974;BME280;60981;50.720;11.342;2023-02-13T04:16:02;57367.47;;;-144.53;100.00
44974;BME280;60981;50.720;11.342;2023-02-13T04:17:12;57367.47;;;-144.53;100.00
44974;BME280;60981;50.720;11.342;2023-02-13T04:18:20;57367.47;;;-144.53;100.00
44974;BME280;60981;50.720;11.342;2023-02-13T04:19:26;57367.47;;;-144.53;100.00
44974;BME280;60981;50.720;11.342;2023-02-13T04:20:47;57367.47;;;-144.53;100.00
44974;BME280;60981;50.720;11.342;2023-02-13T04:21:55;57367.47;;;-144.53;100.00
44974;BME280;60981;50.720;11.342;2023-02-13T04:23:03;57367.47;;;-144.53;100.00
44974;BME280;60981;50.720;11.342;2023-02-13T04:24:06;57367.47;;;-144.53;100.00
44974;BME280;60981;50.720;11.342;2023-02-13T04:25:10;57367.47;;;-144.53;100.00
44974;BME280;60981;50.720;11.342;2023-02-13T04:26:17;57367.47;;;-144.53;100.00
44974;BME280;60981;50.720;11.342;2023-02-13T04:27:20;57367.47;;;-144.53;100.00
44974;BME280;60981;50.720;11.342;2023-02-13T04:28:21;57367.47;;;-144.53;100.00
44974;BME280;60981;50.720;11.342;2023-02-13T04:29:24;57367.47;;;-144.53;100.00
44974;BME280;60981;50.720;11.342;2023-02-13T04:30:26;57367.47;;;-144.53;100.00
44974;BME280;60981;50.720;11.342;2023-02-13T04:31:28;57367.47;;;-144.53;100.00
44974;BME280;60981;50.720;11.342;2023-02-13T04:32:30;57367.47;;;-144.53;100.00
44974;BME280;60981;50.720;11.342;2023-02-13T04:33:32;57367.47;;;-144.53;100.00
44974;BME280;60981;50.720;11.342;2023-02-13T04:34:33;57367.47;;;-144.53;100.00
44974;BME280;60981;50.720;11.342;2023-02-13T04:35:37;57367.47;;;-144.53;100.00
44974;BME280;60981;50.720;11.342;2023-02-13T04:36:39;57367.47;;;-144.53;100.00
44974;BME280;60981;50.720;11.342;2023-02-13T04:37:41;57367.47;;;-144.53;100.00
44974;BME280;60981;50.720;11.342;2023-02-13T04:38:43;57367.47;;;-144.53;100.00
44974;BME280;60981;50.720;11.342;2023-02-13T04:39:46;57367.47;;;-144.53;100.00
44974;BME280;60981;50.720;11.342;2023-02-13T04:40:50;57367.47;;;-144.53;100.00
44974;BME280;60981;50.720;11.342;2023-02-13T04:41:51;57367.47;;;-144.53;100.00
44974;BME280;60981;50.720;11.342;2023-02-13T04:42:53;57367.47;;;-144.53;100.00
44974;BME280;60981;50.720;11.342;2023-02-13T04:43:55;57367.47;;;-144.53;100.00
44974;BME280;60981;50.720;11.342;2023-02-13T04:44:56;57367.47;;;-144.53;100.00
44974;BME280;60981;50.720;11.342;2023-02-13T04:45:58;57367.47;;;-144.53;100.00
44974;BME280;60981;50.720;11.342;2023-02-13T04:47:00;57367.47;;;-144.53;100.00
44974;BME280;60981;50.720;11.342;2023-02-13T04:48:02;57367.47;;;-144.53;100.00
44974;BME280;60981;50.720;11.342;2023-02-13T04:49:04;57367.47;;;-144.53;100.00
44974;BME280;60981;50.720;11.342;2023-02-13T04:50:06;57367.47;;;-144.53;100.00
44974;BME280;60981;50.720;11.342;2023-02-13T04:51:07;57367.47;;;-144.53;100.00
44974;BME280;60981;50.720;11.342;2023-02-13T04:52:09;57367.47;;;-144.53;100.00
44974;BME280;60981;50.720;11.342;2023-02-13T04:53:13;57367.47;;;-144.53;100.00
44974;BME280;60981;50.720;11.342;2023-02-13T04:54:14;57367.47;;;-144.53;100.00
44974;BME280;60981;50.720;11.342;2023-02-13T04:55:17;57367.47;;;-144.53;100.00
44974;BME280;60981;50.720;11.342;2023-02-13T04:56:18;57367.47;;;-144.53;100.00
44974;BME280;60981;50.720;11.342;2023-02-13T04:57:20;57367.47;;;-144.53;100.00
44974;BME280;60981;50.720;11.342;2023-02-13T04:58:22;57367.47;;;-144.53;100.00
44974;BME280;60981;50.720;11.342;2023-02-13T04:59:23;57367.47;;;-144.53;100.00
44974;BME280;60981;50.720;11.342;2023-02-13T05:00:27;57367.47;;;-144.53;100.00
44974;BME280;60981;50.720;11.342;2023-02-13T05:01:29;57367.47;;;-144.53;100.00
44974;BME280;60981;50.720;11.342;2023-02-13T05:02:31;57367.47;;;-144.53;100.00
44974;BME280;60981;50.720;11.342;2023-02-13T05:03:33;57367.47;;;-144.53;100.00
44974;BME280;60981;50.720;11.342;2023-02-13T05:04:37;57367.47;;;-144.53;100.00
44974;BME280;60981;50.720;11.342;2023-02-13T05:05:40;57367.47;;;-144.53;100.00
44974;BME280;60981;50.720;11.342;2023-02-13T05:06:42;57367.47;;;-144.53;100.00
44974;BME280;60981;50.720;11.342;2023-02-13T05:07:44;57367.47;;;-144.53;100.00
44974;BME280;60981;50.720;11.342;2023-02-13T05:08:45;57367.47;;;-144.53;100.00
44974;BME280;60981;50.720;11.342;2023-02-13T05:09:47;57367.47;;;-144.53;100.00
44974;BME280;60981;50.720;11.342;2023-02-13T05:10:49;57367.47;;;-144.53;100.00
44974;BME280;60981;50.720;11.342;2023-02-13T05:11:55;57367.47;;;-144.53;100.00
44974;BME280;60981;50.720;11.342;2023-02-13T05:12:58;57367.47;;;-144.53;100.00
44974;BME280;60981;50.720;11.342;2023-02-13T05:13:59;57367.47;;;-144.53;100.00
44974;BME280;60981;50.720;11.342;2023-02-13T05:15:01;57367.47;;;-144.53;100.00
44974;BME280;60981;50.720;11.342;2023-02-13T05:16:03;57367.47;;;-144.53;100.00
44974;BME280;60981;50.720;11.342;2023-02-13T05:17:05;57367.47;;;-144.53;100.00
44974;BME280;60981;50.720;11.342;2023-02-13T05:18:06;57367.47;;;-144.53;100.00
44974;BME280;60981;50.720;11.342;2023-02-13T05:19:09;57367.47;;;-144.53;100.00
44974;BME280;60981;50.720;11.342;2023-02-13T05:20:12;57367.47;;;-144.53;100.00
44974;BME280;60981;50.720;11.342;2023-02-13T05:21:13;57367.47;;;-144.53;100.00
44974;BME280;60981;50.720;11.342;2023-02-13T05:22:33;57367.47;;;-144.53;100.00
44974;BME280;60981;50.720;11.342;2023-02-13T05:23:54;57367.47;;;-144.53;100.00
44974;BME280;60981;50.720;11.342;2023-02-13T05:24:55;57367.47;;;-144.53;100.00
44974;BME280;60981;50.720;11.342;2023-02-13T05:25:57;57367.47;;;-144.53;100.00
44974;BME280;60981;50.720;11.342;2023-02-13T05:26:59;57367.47;;;-144.53;100.00
44974;BME280;60981;50.720;11.342;2023-02-13T05:28:00;57367.47;;;-144.53;100.00
44974;BME280;60981;50.720;11.342;2023-02-13T05:29:02;57367.47;;;-144.53;100.00
44974;BME280;60981;50.720;11.342;2023-02-13T05:30:20;57367.47;;;-144.53;100.00
44974;BME280;60981;50.720;11.342;2023-02-13T05:31:22;57367.47;;;-144.53;100.00
44974;BME280;60981;50.720;11.342;2023-02-13T05:32:24;57367.47;;;-144.53;100.00
44974;BME280;60981;50.720;11.342;2023-02-13T05:33:26;57367.47;;;-144.53;100.00
44974;BME280;60981;50.720;11.342;2023-02-13T05:34:28;57367.47;;;-144.53;100.00
44974;BME280;60981;50.720;11.342;2023-02-13T05:35:30;57367.47;;;-144.53;100.00
44974;BME280;60981;50.720;11.342;2023-02-13T05:36:33;57367.47;;;-144.53;100.00
44974;BME280;60981;50.720;11.342;2023-02-13T05:37:36;57367.47;;;-144.53;100.00
44974;BME280;60981;50.720;11.342;2023-02-13T05:38:38;57367.47;;;-144.53;100.00
44974;BME280;60981;50.720;11.342;2023-02-13T05:39:41;57367.47;;;-144.53;100.00
44974;BME280;60981;50.720;11.342;2023-02-13T05:40:43;57367.47;;;-144.53;100.00
44974;BME280;60981;50.720;11.342;2023-02-13T05:41:48;57367.47;;;-144.53;100.00
44974;BME280;60981;50.720;11.342;2023-02-13T05:42:52;57367.47;;;-144.53;100.00
44974;BME280;60981;50.720;11.342;2023-02-13T05:43:54;57367.47;;;-144.53;100.00
44974;BME280;60981;50.720;11.342;2023-02-13T05:44:56;57367.47;;;-144.53;100.00
44974;BME280;60981;50.720;11.342;2023-02-13T05:46:02;57367.47;;;-144.53;100.00
44974;BME280;60981;50.720;11.342;2023-02-13T05:47:04;57367.47;;;-144.53;100.00
44974;BME280;60981;50.720;11.342;2023-02-13T05:48:06;57367.47;;;-144.53;100.00
44974;BME280;60981;50.720;11.342;2023-02-13T05:49:10;57367.47;;;-144.53;100.00
44974;BME280;60981;50.720;11.342;2023-02-13T05:50:12;57367.47;;;-144.53;100.00
44974;BME280;60981;50.720;11.342;2023-02-13T05:51:13;57367.47;;;-144.53;100.00
44974;BME280;60981;50.720;11.342;2023-02-13T05:52:15;57367.47;;;-144.53;100.00
44974;BME280;60981;50.720;11.342;2023-02-13T05:53:17;57367.47;;;-144.53;100.00
44974;BME280;60981;50.720;11.342;2023-02-13T05:54:18;57367.47;;;-144.53;100.00
44974;BME280;60981;50.720;11.342;2023-02-13T05:55:20;57367.47;;;-144.53;100.00
44974;BME280;60981;50.720;11.342;2023-02-13T05:56:22;57367.47;;;-144.53;100.00
44974;BME280;60981;50.720;11.342;2023-02-13T05:57:24;57367.47;;;-144.53;100.00
44974;BME280;60981;50.720;11.342;2023-02-13T05:58:28;57367.47;;;-144.53;100.00
44974;BME280;60981;50.720;11.342;2023-02-13T05:59:30;57367.47;;;-144.53;100.00
44974;BME280;60981;50.720;11.342;2023-02-13T06:00:32;57367.47;;;-144.53;100.00
44974;BME280;60981;50.720;11.342;2023-02-13T06:01:33;57367.47;;;-144.53;100.00
44974;BME280;60981;50.720;11.342;2023-02-13T06:02:37;57367.47;;;-144.53;100.00
44974;BME280;60981;50.720;11.342;2023-02-13T06:03:39;57367.47;;;-144.53;100.00
44974;BME280;60981;50.720;11.342;2023-02-13T06:04:41;57367.47;;;-144.53;100.00
44974;BME280;60981;50.720;11.342;2023-02-13T06:05:43;57367.47;;;-144.53;100.00
44974;BME280;60981;50.720;11.342;2023-02-13T06:06:44;57367.47;;;-144.53;100.00
44974;BME280;60981;50.720;11.342;2023-02-13T06:07:46;57367.47;;;-144.53;100.00
44974;BME280;60981;50.720;11.342;2023-02-13T06:08:48;57367.47;;;-144.53;100.00
44974;BME280;60981;50.720;11.342;2023-02-13T06:09:51;57367.47;;;-144.53;100.00
44974;BME280;60981;50.720;11.342;2023-02-13T06:10:52;57367.47;;;-144.53;100.00
44974;BME280;60981;50.720;11.342;2023-02-13T06:11:54;57367.47;;;-144.53;100.00
44974;BME280;60981;50.720;11.342;2023-02-13T06:12:56;57367.47;;;-144.53;100.00
44974;BME280;60981;50.720;11.342;2023-02-13T06:13:57;57367.47;;;-144.53;100.00
44974;BME280;60981;50.720;11.342;2023-02-13T06:14:59;57367.47;;;-144.53;100.00